Address 0x147aaf2f34ea622b79567fa89f913b7e282a817d 1

 
Txn Hash Method
Block
From
To
Value [Txn Fee]
0x49ea44420e82b5ec9af31737f68f29ddc9f0109c4553fddc682020fb9eccefd8Swap144156432022-01-16 12:24:517 days 15 hrs ago0x147aaf2f34ea622b79567fa89f913b7e282a817dOUT Metamask: Swap Router0.18 BNB0.00170186
0xf48b5aa72323576e4a736159490b7031794288151e3c53259932b8ada4dee491Transfer144156342022-01-16 12:24:247 days 15 hrs agoGate.io IN 0x147aaf2f34ea622b79567fa89f913b7e282a817d0.184 BNB0.000189
0x1947c8a545888ec0042d17d2e32b805a0b2b0edd4969e68ebfdab84047cda955Swap143720052022-01-14 23:57:159 days 3 hrs ago0x147aaf2f34ea622b79567fa89f913b7e282a817dOUT Metamask: Swap Router0 BNB0.00126094
0xd395ee16be7b274f4b34f150075a55e5c95681129c3d4ab0599a6da60b477a66Swap137164622021-12-23 4:46:1731 days 22 hrs ago0x147aaf2f34ea622b79567fa89f913b7e282a817dOUT Metamask: Swap Router0.49 BNB0.00228174
0xfde58fba6192eb08231186eb10dfb6e9e3fb828bdc751372559a10a8e377b07eSwap137154382021-12-23 3:55:0531 days 23 hrs ago0x147aaf2f34ea622b79567fa89f913b7e282a817dOUT Metamask: Swap Router0.5 BNB0.00242078
0x3f4fa3b875f6c3d0f446ed69b62241bdca70d78b816e4c56aaec1462c3cdf1f0Swap137154262021-12-23 3:54:2931 days 23 hrs ago0x147aaf2f34ea622b79567fa89f913b7e282a817dOUT Metamask: Swap Router0.5 BNB0.001817535
0xfe0a121e0c5530504229499b6bb7d3c4851d8eb85ce78eb8daabf1ba23884dc3Transfer137152542021-12-23 3:45:5231 days 23 hrs agoGate.io IN 0x147aaf2f34ea622b79567fa89f913b7e282a817d1.4944 BNB0.000189
0xe7a279fc09a3fb086e6d4f9a70177cc7bedbd7916d3d3e1957a4f2110356c15fSwap136190962021-12-19 18:56:0535 days 8 hrs ago0x147aaf2f34ea622b79567fa89f913b7e282a817dOUT Metamask: Swap Router0.38 BNB0.0022818
0x9ce3619d1a4a1d9e8e98fc5dfc825d740710bb56f47781e71b3b3868f1c0575cSwap136190832021-12-19 18:55:2635 days 8 hrs ago0x147aaf2f34ea622b79567fa89f913b7e282a817dOUT Metamask: Swap Router0.3 BNB0.00228178
0xf8b6560ad5375ef53a8f12d3e68631652153190249940ea0c6298def656d744aSwap136190682021-12-19 18:54:4135 days 8 hrs ago0x147aaf2f34ea622b79567fa89f913b7e282a817dOUT Metamask: Swap Router0.3 BNB0.0022818
0x8c52f0a77d25e84ae7c2369a0b485782d6235acfb6cc8cacca9dfe6a46a8b6f5Swap136190532021-12-19 18:53:5635 days 8 hrs ago0x147aaf2f34ea622b79567fa89f913b7e282a817dOUT Metamask: Swap Router0.3 BNB0.00122781
0x2ecbfd295bde20a7a590aaa78109bdc18c40a2565801c7cca4e775db85449efaTransfer136190412021-12-19 18:53:2035 days 8 hrs agoGate.io IN 0x147aaf2f34ea622b79567fa89f913b7e282a817d1.289 BNB0.000189
0x8cafaacd2c74ba9b3eb54902e1a35eda5df7b4dc2e796a00d6248206279314a4Swap135386392021-12-16 23:44:5238 days 3 hrs ago0x147aaf2f34ea622b79567fa89f913b7e282a817dOUT Metamask: Swap Router0.365 BNB0.00228184
0xf5b6e77ac45007eed12cbfaa5ed206627054e0d709885fdf058e051914ba3c37Swap135385762021-12-16 23:41:4338 days 3 hrs ago0x147aaf2f34ea622b79567fa89f913b7e282a817dOUT Metamask: Swap Router0.2 BNB0.00122781
0x82f96044cf28f3f5e7596846cc5c562985663b9e5acc9530a7a672b2f8ad23a3Swap135385472021-12-16 23:40:1638 days 3 hrs ago0x147aaf2f34ea622b79567fa89f913b7e282a817dOUT Metamask: Swap Router0.4 BNB0.00228178
0xbaee12c90f894368742be3dcd6941ab9ec3668a2708c128eaff8144459bf0145Swap135382242021-12-16 23:23:4938 days 4 hrs ago0x147aaf2f34ea622b79567fa89f913b7e282a817dOUT Metamask: Swap Router0.5 BNB0.002688225
0x1b4283758ca7a0547f2021447624bad5be9bed0d59023f3a9cc4f80ca1ff6203Swap135382022021-12-16 23:22:4338 days 4 hrs ago0x147aaf2f34ea622b79567fa89f913b7e282a817dOUT Metamask: Swap Router0.5 BNB0.0022818
0x3ecd644fdf21335a7b24a53e1fc74bd9170d3b06761b9dfeeff7fc5b20be2175Transfer135381852021-12-16 23:21:5238 days 4 hrs agoGate.io IN 0x147aaf2f34ea622b79567fa89f913b7e282a817d1.98 BNB0.000189
0xdbba6b4a3506562dfec6e3415d1a07ca8c127f4f7dd85999b26e99bead21d855Transfer125433622021-11-10 23:56:0274 days 3 hrs ago0x147aaf2f34ea622b79567fa89f913b7e282a817dOUT0xed7883cbe13bd1ebd53e5818b1cd08d3b10347f10.5049 BNB0.000105
0x1dc08783efe100d7bb62c7da441e06a2fa10faa37189e5c90916054fa342503eSwap125433092021-11-10 23:53:2374 days 3 hrs ago0x147aaf2f34ea622b79567fa89f913b7e282a817dOUT Metamask: Swap Router0 BNB0.00122006
0x2e60a0b2f202345f2c565c5ca9ea394b8d4384a73d31b141c0742b307fd1d993Approve125433092021-11-10 23:53:2374 days 3 hrs ago0x147aaf2f34ea622b79567fa89f913b7e282a817dOUT Binance: BUSD Stablecoin0 BNB0.00022203
0x2bb2c38c5c40a581af48fa18aa440c4b42082e624ebe8bcf6a95a6cc02783f59Swap122919442021-11-02 1:41:5283 days 1 hr ago0x147aaf2f34ea622b79567fa89f913b7e282a817dOUT Metamask: Swap Router0.08 BNB0.00120296
0xc48378b47a3765bb8aec10bfc4b71f64519b14e5ee2421921ede40bb23fc861dSwap122918542021-11-02 1:37:2183 days 1 hr ago0x147aaf2f34ea622b79567fa89f913b7e282a817dOUT Metamask: Swap Router0.9 BNB0.00266942
0x6d86852af2afe3e37a29dc267a06dcd9385024e9d179ae6a5d9c2cf736c90b15Transfer122918032021-11-02 1:34:4883 days 1 hr agoGate.io IN 0x147aaf2f34ea622b79567fa89f913b7e282a817d0.984 BNB0.000189
0x309ddf1c14f044789016c6bcd04a64ade9a18559e6cf055a1a14db06fa4983c8Swap116544052021-10-10 14:57:06105 days 12 hrs ago0x147aaf2f34ea622b79567fa89f913b7e282a817dOUT Metamask: Swap Router0.32 BNB0.001394745
[ Download CSV Export 
Latest 2 internal transactions
Parent Txn Hash Block From To Value
0x1947c8a545888ec0042d17d2e32b805a0b2b0edd4969e68ebfdab84047cda955143720052022-01-14 23:57:159 days 3 hrs ago 0xc590175e458b83680867afd273527ff58f74c02b0x147aaf2f34ea622b79567fa89f913b7e282a817d0.0018001611885564 BNB
0x1dc08783efe100d7bb62c7da441e06a2fa10faa37189e5c90916054fa342503e125433092021-11-10 23:53:2374 days 3 hrs ago 0xc590175e458b83680867afd273527ff58f74c02b0x147aaf2f34ea622b79567fa89f913b7e282a817d0.50328066186341816 BNB
[ Download CSV Export 
Loading

Contract Name:
0 BNB

Compiler Version
0

Optimization Enabled:
0 BNB

Other Settings:
-NA-
Block Transaction Gas Used Reward
Age Block Fee Address BC Fee Address Voting Power Jailed Incoming
Block Uncle Number Difficulty Gas Used Reward
Loading
Loading
Make sure to use the "Vote Down" button for any spammy posts, and the "Vote Up" for interesting conversations.